»·PEaware :: N420TW NONE-KSMF

N420TW :: NONE-KSMF

FLIGHT INFORMATION

Flight Status: Arrived
Operator: Privately registered:
United States
More flights under this callsign
Pilot: Chris B. (23589)
Aircraft: CESSNA 172 SKYHAWK
(C172)
More flights by this aircraft type
Origin: NONE
Destination: KSMF Sacramento Intl
United States
More flights between these airports :: More routes between these airports
Route: +
File this flight plan on PilotEdge
Remarks:
Altitude:
(Current/Filed)
4,500ft
Speed:
(Current/Filed)
0kts
Departed: 08-Dec-19 08:53 PM
Arrived: 08-Dec-19 09:39 PM
Distance/Time
Traveled:
Not Available
Distance/Time
To Go:
Arrived

Flight Plot

Page will automatically refresh every two minutes.

Flight plan parsing failed; only flown route is shown


Map Options




Map Legend


Flown Route
Filed Route
Departure Airport
Arrival Airport
Navaid (VOR, NDB)
Fix

Horizontal Profiles

Position Reports

Time Latitude Longitude Heading Altitude Ground
Speed
08-Dec-19 20:51 37.524395 -122.138966 74 1637ft 111kts
08-Dec-19 20:52 37.528919 -122.109556 76 1729ft 104kts
08-Dec-19 20:53 37.531470 -122.090921 76 1614ft 115kts
08-Dec-19 20:54 37.535597 -122.056421 78 2637ft 90kts
08-Dec-19 20:55 37.536276 -122.025126 84 3542ft 95kts
08-Dec-19 20:56 37.535652 -121.985291 72 3480ft 116kts
08-Dec-19 20:57 37.554745 -121.951567 54 3447ft 114kts
08-Dec-19 20:58 37.570750 -121.916580 61 3487ft 113kts
08-Dec-19 20:59 37.593067 -121.887663 30 3442ft 113kts
08-Dec-19 21:00 37.619525 -121.867808 29 3767ft 101kts
08-Dec-19 21:01 37.641672 -121.850866 30 4771ft 90kts
08-Dec-19 21:02 37.662858 -121.834560 29 5460ft 101kts
08-Dec-19 21:03 37.688143 -121.813791 36 5439ft 113kts
08-Dec-19 21:04 37.708580 -121.783570 45 5514ft 109kts
08-Dec-19 21:05 37.737538 -121.772559 356 5492ft 112kts
08-Dec-19 21:06 37.769187 -121.774557 358 5480ft 113kts
08-Dec-19 21:07 37.800961 -121.773458 2 5493ft 112kts
08-Dec-19 21:08 37.833208 -121.770434 5 5458ft 112kts
08-Dec-19 21:09 37.864577 -121.764864 9 5452ft 111kts
08-Dec-19 21:10 37.895078 -121.758608 9 5485ft 110kts
08-Dec-19 21:11 37.925971 -121.752028 9 5451ft 112kts
08-Dec-19 21:12 37.956781 -121.746233 8 5438ft 109kts
08-Dec-19 21:13 37.982706 -121.740691 9 5495ft 106kts
08-Dec-19 21:14 38.011864 -121.734136 9 5491ft 107kts
08-Dec-19 21:15 38.042106 -121.727166 9 5493ft 107kts
08-Dec-19 21:16 38.071120 -121.720299 9 5496ft 107kts
08-Dec-19 21:17 38.097269 -121.713947 9 5497ft 106kts
08-Dec-19 21:18 38.124097 -121.707353 9 5499ft 107kts
08-Dec-19 21:19 38.155181 -121.699648 9 5499ft 107kts
08-Dec-19 21:20 38.185245 -121.692147 9 5499ft 108kts
08-Dec-19 21:21 38.215675 -121.684517 9 5499ft 108kts
08-Dec-19 21:22 38.246072 -121.679058 4 5499ft 108kts
08-Dec-19 21:23 38.276119 -121.675245 4 5501ft 108kts
08-Dec-19 21:24 38.306684 -121.671285 8 5502ft 108kts
08-Dec-19 21:25 38.337118 -121.662443 11 5504ft 108kts
08-Dec-19 21:26 38.367160 -121.653395 11 5506ft 108kts
08-Dec-19 21:27 38.396464 -121.643632 14 5243ft 106kts
08-Dec-19 21:28 38.426440 -121.632175 15 4765ft 111kts
08-Dec-19 21:29 38.456971 -121.619774 16 4294ft 110kts
08-Dec-19 21:30 38.487009 -121.607801 15 3689ft 110kts
08-Dec-19 21:31 38.516745 -121.594319 12 3265ft 109kts
08-Dec-19 21:32 38.547667 -121.585413 10 2769ft 109kts
08-Dec-19 21:33 38.579391 -121.580904 356 2290ft 109kts
08-Dec-19 21:34 38.611123 -121.581311 357 1636ft 108kts
08-Dec-19 21:35 38.641959 -121.580712 3 1062ft 95kts
08-Dec-19 21:36 38.661872 -121.580754 356 436ft 60kts
08-Dec-19 21:38 38.679296 -121.580486 357 166ft 60kts
08-Dec-19 21:39 38.693892 -121.580306 2 20ft 33kts
08-Dec-19 21:40 38.694353 -121.582906 180 22ft 27kts
08-Dec-19 21:41 38.685064 -121.583060 180 20ft 31kts
08-Dec-19 21:42 38.683657 -121.581759 89 20ft 0kts

Navigation Log

Ident Type
Flight plan parsing failed, navigation log unavailable